sensor_id;sensor_type;location;lat;lon;timestamp;P1;durP1;ratioP1;P2;durP2;ratioP2
54545;SDS011;40444;45.184;9.850;2023-02-23T00:02:18;146.80;;;77.38;;
54545;SDS011;40444;45.184;9.850;2023-02-23T00:04:46;147.68;;;76.80;;
54545;SDS011;40444;45.184;9.850;2023-02-23T00:07:15;144.55;;;74.30;;
54545;SDS011;40444;45.184;9.850;2023-02-23T00:09:46;145.90;;;76.03;;
54545;SDS011;40444;45.184;9.850;2023-02-23T00:12:15;150.48;;;75.18;;
54545;SDS011;40444;45.184;9.850;2023-02-23T00:14:44;145.65;;;73.18;;
54545;SDS011;40444;45.184;9.850;2023-02-23T00:17:12;139.82;;;72.82;;
54545;SDS011;40444;45.184;9.850;2023-02-23T00:19:41;144.15;;;72.70;;
54545;SDS011;40444;45.184;9.850;2023-02-23T00:22:10;141.90;;;71.35;;
54545;SDS011;40444;45.184;9.850;2023-02-23T00:24:39;141.70;;;73.57;;
54545;SDS011;40444;45.184;9.850;2023-02-23T00:27:09;136.90;;;73.32;;
54545;SDS011;40444;45.184;9.850;2023-02-23T00:29:44;146.80;;;74.75;;
54545;SDS011;40444;45.184;9.850;2023-02-23T00:32:16;138.70;;;71.75;;
54545;SDS011;40444;45.184;9.850;2023-02-23T00:34:47;134.70;;;68.75;;
54545;SDS011;40444;45.184;9.850;2023-02-23T00:37:16;132.77;;;68.80;;
54545;SDS011;40444;45.184;9.850;2023-02-23T00:39:47;141.00;;;72.82;;
54545;SDS011;40444;45.184;9.850;2023-02-23T00:42:15;142.25;;;72.45;;
54545;SDS011;40444;45.184;9.850;2023-02-23T00:44:43;143.57;;;71.47;;
54545;SDS011;40444;45.184;9.850;2023-02-23T00:47:13;147.13;;;74.10;;
54545;SDS011;40444;45.184;9.850;2023-02-23T00:49:41;138.38;;;73.97;;
54545;SDS011;40444;45.184;9.850;2023-02-23T00:52:11;145.55;;;71.35;;
54545;SDS011;40444;45.184;9.850;2023-02-23T00:54:41;140.18;;;74.20;;
54545;SDS011;40444;45.184;9.850;2023-02-23T00:57:09;130.82;;;69.32;;
54545;SDS011;40444;45.184;9.850;2023-02-23T00:59:37;137.07;;;72.65;;
54545;SDS011;40444;45.184;9.850;2023-02-23T01:02:05;136.98;;;72.95;;
54545;SDS011;40444;45.184;9.850;2023-02-23T01:04:33;134.15;;;69.68;;
54545;SDS011;40444;45.184;9.850;2023-02-23T01:07:01;135.55;;;70.57;;
54545;SDS011;40444;45.184;9.850;2023-02-23T01:09:33;136.18;;;69.93;;
54545;SDS011;40444;45.184;9.850;2023-02-23T01:12:03;139.05;;;71.63;;
54545;SDS011;40444;45.184;9.850;2023-02-23T01:14:35;133.00;;;71.88;;
54545;SDS011;40444;45.184;9.850;2023-02-23T01:17:04;136.18;;;71.28;;
54545;SDS011;40444;45.184;9.850;2023-02-23T01:19:35;136.80;;;70.95;;
54545;SDS011;40444;45.184;9.850;2023-02-23T01:22:04;132.63;;;69.90;;
54545;SDS011;40444;45.184;9.850;2023-02-23T01:24:32;145.00;;;75.28;;
54545;SDS011;40444;45.184;9.850;2023-02-23T01:27:03;138.35;;;71.20;;
54545;SDS011;40444;45.184;9.850;2023-02-23T01:29:33;136.23;;;70.18;;
54545;SDS011;40444;45.184;9.850;2023-02-23T01:32:01;135.00;;;70.20;;
54545;SDS011;40444;45.184;9.850;2023-02-23T01:34:31;132.98;;;69.55;;
54545;SDS011;40444;45.184;9.850;2023-02-23T01:36:59;125.40;;;66.20;;
54545;SDS011;40444;45.184;9.850;2023-02-23T01:39:28;135.27;;;69.53;;
54545;SDS011;40444;45.184;9.850;2023-02-23T01:41:56;133.10;;;67.97;;
54545;SDS011;40444;45.184;9.850;2023-02-23T01:46:54;143.90;;;73.78;;
54545;SDS011;40444;45.184;9.850;2023-02-23T01:49:24;142.23;;;71.72;;
54545;SDS011;40444;45.184;9.850;2023-02-23T01:52:05;144.73;;;71.95;;
54545;SDS011;40444;45.184;9.850;2023-02-23T01:54:41;143.48;;;71.97;;
54545;SDS011;40444;45.184;9.850;2023-02-23T01:57:17;137.40;;;70.75;;
54545;SDS011;40444;45.184;9.850;2023-02-23T01:59:49;137.23;;;71.53;;
54545;SDS011;40444;45.184;9.850;2023-02-23T02:02:20;134.35;;;72.60;;
54545;SDS011;40444;45.184;9.850;2023-02-23T02:05:00;144.48;;;70.45;;
54545;SDS011;40444;45.184;9.850;2023-02-23T02:07:32;138.65;;;74.43;;
54545;SDS011;40444;45.184;9.850;2023-02-23T02:10:01;137.65;;;69.70;;
54545;SDS011;40444;45.184;9.850;2023-02-23T02:12:40;136.73;;;68.60;;
54545;SDS011;40444;45.184;9.850;2023-02-23T02:15:12;139.95;;;70.20;;
54545;SDS011;40444;45.184;9.850;2023-02-23T02:23:42;136.23;;;71.60;;
54545;SDS011;40444;45.184;9.850;2023-02-23T02:32:54;122.68;;;63.90;;
54545;SDS011;40444;45.184;9.850;2023-02-23T02:38:17;128.48;;;68.25;;
54545;SDS011;40444;45.184;9.850;2023-02-23T02:41:12;120.88;;;65.93;;
54545;SDS011;40444;45.184;9.850;2023-02-23T02:43:50;131.02;;;65.53;;
54545;SDS011;40444;45.184;9.850;2023-02-23T02:46:28;129.67;;;66.40;;
54545;SDS011;40444;45.184;9.850;2023-02-23T02:49:13;110.25;;;59.75;;
54545;SDS011;40444;45.184;9.850;2023-02-23T02:51:57;119.10;;;61.00;;
54545;SDS011;40444;45.184;9.850;2023-02-23T02:54:38;116.95;;;61.28;;
54545;SDS011;40444;45.184;9.850;2023-02-23T02:57:10;106.97;;;59.65;;
54545;SDS011;40444;45.184;9.850;2023-02-23T02:59:43;105.18;;;58.40;;
54545;SDS011;40444;45.184;9.850;2023-02-23T03:02:33;112.03;;;59.22;;
54545;SDS011;40444;45.184;9.850;2023-02-23T03:05:27;112.90;;;59.90;;
54545;SDS011;40444;45.184;9.850;2023-02-23T03:08:29;109.95;;;58.28;;
54545;SDS011;40444;45.184;9.850;2023-02-23T03:11:38;111.13;;;58.55;;
54545;SDS011;40444;45.184;9.850;2023-02-23T03:14:43;118.77;;;63.20;;
54545;SDS011;40444;45.184;9.850;2023-02-23T03:17:43;116.60;;;62.13;;
54545;SDS011;40444;45.184;9.850;2023-02-23T03:23:21;130.55;;;62.60;;
54545;SDS011;40444;45.184;9.850;2023-02-23T03:29:18;109.40;;;60.10;;
54545;SDS011;40444;45.184;9.850;2023-02-23T03:32:24;116.37;;;60.60;;
54545;SDS011;40444;45.184;9.850;2023-02-23T03:35:32;126.65;;;67.10;;
54545;SDS011;40444;45.184;9.850;2023-02-23T03:38:25;126.35;;;65.20;;
54545;SDS011;40444;45.184;9.850;2023-02-23T03:41:20;112.95;;;59.83;;
54545;SDS011;40444;45.184;9.850;2023-02-23T03:44:12;124.75;;;63.05;;
54545;SDS011;40444;45.184;9.850;2023-02-23T03:47:03;136.80;;;70.38;;
54545;SDS011;40444;45.184;9.850;2023-02-23T03:49:51;140.90;;;70.63;;
54545;SDS011;40444;45.184;9.850;2023-02-23T03:52:45;142.75;;;73.72;;
54545;SDS011;40444;45.184;9.850;2023-02-23T03:55:36;151.13;;;74.50;;
54545;SDS011;40444;45.184;9.850;2023-02-23T03:58:33;145.70;;;72.78;;
54545;SDS011;40444;45.184;9.850;2023-02-23T04:01:25;142.50;;;71.82;;
54545;SDS011;40444;45.184;9.850;2023-02-23T04:04:13;134.38;;;67.78;;
54545;SDS011;40444;45.184;9.850;2023-02-23T04:07:00;134.57;;;67.78;;
54545;SDS011;40444;45.184;9.850;2023-02-23T04:09:48;121.90;;;63.33;;
54545;SDS011;40444;45.184;9.850;2023-02-23T04:15:32;127.28;;;62.80;;
54545;SDS011;40444;45.184;9.850;2023-02-23T04:18:03;122.22;;;63.10;;
54545;SDS011;40444;45.184;9.850;2023-02-23T04:20:33;124.68;;;64.68;;
54545;SDS011;40444;45.184;9.850;2023-02-23T04:23:01;129.02;;;68.15;;
54545;SDS011;40444;45.184;9.850;2023-02-23T04:25:30;130.13;;;65.65;;
54545;SDS011;40444;45.184;9.850;2023-02-23T04:27:59;120.97;;;66.03;;
54545;SDS011;40444;45.184;9.850;2023-02-23T04:30:27;133.40;;;67.97;;
54545;SDS011;40444;45.184;9.850;2023-02-23T04:32:56;136.90;;;68.60;;
54545;SDS011;40444;45.184;9.850;2023-02-23T04:35:26;133.55;;;70.45;;
54545;SDS011;40444;45.184;9.850;2023-02-23T04:37:56;126.05;;;64.43;;
54545;SDS011;40444;45.184;9.850;2023-02-23T04:40:26;134.38;;;67.65;;
54545;SDS011;40444;45.184;9.850;2023-02-23T04:42:54;122.32;;;62.08;;
54545;SDS011;40444;45.184;9.850;2023-02-23T04:45:23;123.22;;;64.03;;
54545;SDS011;40444;45.184;9.850;2023-02-23T04:47:52;120.40;;;62.75;;
54545;SDS011;40444;45.184;9.850;2023-02-23T04:50:20;134.65;;;66.25;;
54545;SDS011;40444;45.184;9.850;2023-02-23T04:52:48;126.22;;;68.60;;
54545;SDS011;40444;45.184;9.850;2023-02-23T04:55:19;130.80;;;65.22;;
54545;SDS011;40444;45.184;9.850;2023-02-23T04:57:49;127.63;;;66.13;;
54545;SDS011;40444;45.184;9.850;2023-02-23T05:00:17;123.65;;;65.50;;
54545;SDS011;40444;45.184;9.850;2023-02-23T05:02:46;127.82;;;64.85;;
54545;SDS011;40444;45.184;9.850;2023-02-23T05:05:17;126.13;;;63.75;;
54545;SDS011;40444;45.184;9.850;2023-02-23T05:07:45;132.55;;;64.70;;
54545;SDS011;40444;45.184;9.850;2023-02-23T05:10:13;126.45;;;64.05;;
54545;SDS011;40444;45.184;9.850;2023-02-23T05:12:42;134.00;;;64.93;;
54545;SDS011;40444;45.184;9.850;2023-02-23T05:15:10;130.30;;;65.97;;
54545;SDS011;40444;45.184;9.850;2023-02-23T05:17:39;138.15;;;68.78;;
54545;SDS011;40444;45.184;9.850;2023-02-23T05:20:11;135.85;;;70.57;;
54545;SDS011;40444;45.184;9.850;2023-02-23T05:22:40;140.15;;;70.18;;
54545;SDS011;40444;45.184;9.850;2023-02-23T19:03:26;51.33;;;29.83;;
54545;SDS011;40444;45.184;9.850;2023-02-23T19:05:56;64.63;;;33.53;;
54545;SDS011;40444;45.184;9.850;2023-02-23T19:08:27;53.90;;;33.80;;
54545;SDS011;40444;45.184;9.850;2023-02-23T19:10:57;59.47;;;32.72;;
54545;SDS011;40444;45.184;9.850;2023-02-23T19:13:25;57.45;;;34.22;;
54545;SDS011;40444;45.184;9.850;2023-02-23T19:15:53;58.67;;;34.20;;
54545;SDS011;40444;45.184;9.850;2023-02-23T19:18:21;53.72;;;33.08;;
54545;SDS011;40444;45.184;9.850;2023-02-23T19:20:49;53.13;;;32.55;;
54545;SDS011;40444;45.184;9.850;2023-02-23T19:23:18;62.00;;;35.08;;
54545;SDS011;40444;45.184;9.850;2023-02-23T19:25:47;59.13;;;34.53;;
54545;SDS011;40444;45.184;9.850;2023-02-23T19:28:16;57.00;;;36.50;;
54545;SDS011;40444;45.184;9.850;2023-02-23T19:30:45;54.25;;;33.90;;
54545;SDS011;40444;45.184;9.850;2023-02-23T19:33:15;57.63;;;35.67;;
54545;SDS011;40444;45.184;9.850;2023-02-23T19:35:43;61.28;;;35.75;;
54545;SDS011;40444;45.184;9.850;2023-02-23T19:38:11;62.28;;;36.72;;
54545;SDS011;40444;45.184;9.850;2023-02-23T19:40:42;55.15;;;35.53;;
54545;SDS011;40444;45.184;9.850;2023-02-23T19:43:11;59.28;;;35.78;;
54545;SDS011;40444;45.184;9.850;2023-02-23T19:45:40;56.67;;;35.60;;
54545;SDS011;40444;45.184;9.850;2023-02-23T19:48:14;59.80;;;36.28;;
54545;SDS011;40444;45.184;9.850;2023-02-23T19:50:47;60.20;;;37.08;;
54545;SDS011;40444;45.184;9.850;2023-02-23T19:53:16;59.03;;;35.95;;
54545;SDS011;40444;45.184;9.850;2023-02-23T19:55:44;66.25;;;40.85;;
54545;SDS011;40444;45.184;9.850;2023-02-23T19:58:15;69.00;;;39.13;;
54545;SDS011;40444;45.184;9.850;2023-02-23T20:00:44;70.38;;;41.72;;
54545;SDS011;40444;45.184;9.850;2023-02-23T20:03:14;69.38;;;39.17;;
54545;SDS011;40444;45.184;9.850;2023-02-23T20:05:46;67.68;;;38.60;;
54545;SDS011;40444;45.184;9.850;2023-02-23T20:08:14;68.82;;;39.38;;
54545;SDS011;40444;45.184;9.850;2023-02-23T20:10:46;61.28;;;37.83;;
54545;SDS011;40444;45.184;9.850;2023-02-23T20:13:15;68.93;;;39.17;;
54545;SDS011;40444;45.184;9.850;2023-02-23T20:15:44;70.20;;;40.13;;
54545;SDS011;40444;45.184;9.850;2023-02-23T20:18:13;73.40;;;40.85;;
54545;SDS011;40444;45.184;9.850;2023-02-23T20:20:42;65.90;;;39.63;;
54545;SDS011;40444;45.184;9.850;2023-02-23T20:23:10;79.15;;;42.60;;
54545;SDS011;40444;45.184;9.850;2023-02-23T20:25:39;78.20;;;43.90;;
54545;SDS011;40444;45.184;9.850;2023-02-23T20:28:09;75.88;;;42.72;;
54545;SDS011;40444;45.184;9.850;2023-02-23T20:30:37;74.10;;;44.25;;
54545;SDS011;40444;45.184;9.850;2023-02-23T20:33:05;76.07;;;43.38;;
54545;SDS011;40444;45.184;9.850;2023-02-23T20:35:38;75.53;;;44.05;;
54545;SDS011;40444;45.184;9.850;2023-02-23T20:38:07;74.20;;;42.67;;
54545;SDS011;40444;45.184;9.850;2023-02-23T20:40:36;81.15;;;45.38;;
54545;SDS011;40444;45.184;9.850;2023-02-23T20:43:04;70.95;;;43.95;;
54545;SDS011;40444;45.184;9.850;2023-02-23T20:45:33;78.25;;;44.95;;
54545;SDS011;40444;45.184;9.850;2023-02-23T20:48:01;75.40;;;42.00;;
54545;SDS011;40444;45.184;9.850;2023-02-23T20:50:30;76.55;;;43.55;;
54545;SDS011;40444;45.184;9.850;2023-02-23T20:53:00;76.07;;;42.75;;
54545;SDS011;40444;45.184;9.850;2023-02-23T20:55:30;84.60;;;46.72;;
54545;SDS011;40444;45.184;9.850;2023-02-23T20:57:59;81.25;;;46.05;;
54545;SDS011;40444;45.184;9.850;2023-02-23T21:00:27;83.65;;;45.63;;
54545;SDS011;40444;45.184;9.850;2023-02-23T21:03:01;81.43;;;44.65;;
54545;SDS011;40444;45.184;9.850;2023-02-23T21:05:31;74.93;;;45.47;;
54545;SDS011;40444;45.184;9.850;2023-02-23T21:08:05;78.88;;;45.75;;
54545;SDS011;40444;45.184;9.850;2023-02-23T21:10:36;74.88;;;45.13;;
54545;SDS011;40444;45.184;9.850;2023-02-23T21:13:06;77.65;;;45.35;;
54545;SDS011;40444;45.184;9.850;2023-02-23T21:15:39;82.00;;;46.47;;
54545;SDS011;40444;45.184;9.850;2023-02-23T21:18:07;78.03;;;44.13;;
54545;SDS011;40444;45.184;9.850;2023-02-23T21:20:37;78.38;;;44.03;;
54545;SDS011;40444;45.184;9.850;2023-02-23T21:23:06;74.43;;;45.45;;
54545;SDS011;40444;45.184;9.850;2023-02-23T21:25:34;81.30;;;44.83;;
54545;SDS011;40444;45.184;9.850;2023-02-23T21:28:02;75.30;;;42.05;;
54545;SDS011;40444;45.184;9.850;2023-02-23T21:30:30;80.40;;;45.20;;
54545;SDS011;40444;45.184;9.850;2023-02-23T21:32:59;83.05;;;44.72;;
54545;SDS011;40444;45.184;9.850;2023-02-23T21:35:27;80.53;;;44.63;;
54545;SDS011;40444;45.184;9.850;2023-02-23T21:37:56;82.30;;;44.45;;
54545;SDS011;40444;45.184;9.850;2023-02-23T21:40:24;77.13;;;45.17;;
54545;SDS011;40444;45.184;9.850;2023-02-23T21:42:52;83.47;;;45.15;;
54545;SDS011;40444;45.184;9.850;2023-02-23T21:45:20;80.28;;;45.05;;
54545;SDS011;40444;45.184;9.850;2023-02-23T21:47:49;78.50;;;44.33;;
54545;SDS011;40444;45.184;9.850;2023-02-23T21:50:17;80.25;;;44.83;;
54545;SDS011;40444;45.184;9.850;2023-02-23T21:52:46;77.80;;;44.53;;
54545;SDS011;40444;45.184;9.850;2023-02-23T21:55:16;78.75;;;46.08;;
54545;SDS011;40444;45.184;9.850;2023-02-23T21:57:49;81.40;;;45.70;;
54545;SDS011;40444;45.184;9.850;2023-02-23T22:00:19;77.43;;;43.45;;
54545;SDS011;40444;45.184;9.850;2023-02-23T22:02:48;83.13;;;45.55;;
54545;SDS011;40444;45.184;9.850;2023-02-23T22:05:18;78.57;;;45.00;;
54545;SDS011;40444;45.184;9.850;2023-02-23T22:07:48;81.07;;;45.70;;
54545;SDS011;40444;45.184;9.850;2023-02-23T22:10:18;83.45;;;47.47;;
54545;SDS011;40444;45.184;9.850;2023-02-23T22:12:48;83.57;;;43.22;;
54545;SDS011;40444;45.184;9.850;2023-02-23T22:15:20;85.80;;;47.80;;
54545;SDS011;40444;45.184;9.850;2023-02-23T22:17:54;82.82;;;47.33;;
54545;SDS011;40444;45.184;9.850;2023-02-23T22:20:23;81.30;;;46.60;;
54545;SDS011;40444;45.184;9.850;2023-02-23T22:22:53;79.45;;;46.72;;
54545;SDS011;40444;45.184;9.850;2023-02-23T22:25:21;78.88;;;45.88;;
54545;SDS011;40444;45.184;9.850;2023-02-23T22:27:52;80.97;;;45.63;;
54545;SDS011;40444;45.184;9.850;2023-02-23T22:30:20;78.28;;;44.85;;
54545;SDS011;40444;45.184;9.850;2023-02-23T22:32:50;83.78;;;46.80;;
54545;SDS011;40444;45.184;9.850;2023-02-23T22:35:22;82.05;;;46.30;;
54545;SDS011;40444;45.184;9.850;2023-02-23T22:37:50;79.75;;;46.60;;
54545;SDS011;40444;45.184;9.850;2023-02-23T22:40:19;86.45;;;47.05;;
54545;SDS011;40444;45.184;9.850;2023-02-23T22:42:47;83.28;;;45.25;;
54545;SDS011;40444;45.184;9.850;2023-02-23T22:45:16;84.28;;;47.45;;
54545;SDS011;40444;45.184;9.850;2023-02-23T22:47:45;79.82;;;45.17;;
54545;SDS011;40444;45.184;9.850;2023-02-23T22:50:13;86.85;;;47.30;;
54545;SDS011;40444;45.184;9.850;2023-02-23T22:52:47;80.78;;;47.35;;
54545;SDS011;40444;45.184;9.850;2023-02-23T22:55:15;77.82;;;43.35;;
54545;SDS011;40444;45.184;9.850;2023-02-23T22:57:46;79.43;;;43.10;;
54545;SDS011;40444;45.184;9.850;2023-02-23T23:00:14;80.93;;;44.50;;
54545;SDS011;40444;45.184;9.850;2023-02-23T23:02:45;74.47;;;43.80;;
54545;SDS011;40444;45.184;9.850;2023-02-23T23:05:14;80.00;;;45.58;;
54545;SDS011;40444;45.184;9.850;2023-02-23T23:07:42;84.00;;;46.30;;
54545;SDS011;40444;45.184;9.850;2023-02-23T23:10:14;79.88;;;43.08;;
54545;SDS011;40444;45.184;9.850;2023-02-23T23:12:46;78.72;;;44.50;;
54545;SDS011;40444;45.184;9.850;2023-02-23T23:15:15;65.82;;;39.20;;
54545;SDS011;40444;45.184;9.850;2023-02-23T23:17:45;62.88;;;38.85;;
54545;SDS011;40444;45.184;9.850;2023-02-23T23:20:17;65.50;;;38.38;;
54545;SDS011;40444;45.184;9.850;2023-02-23T23:22:52;68.72;;;39.50;;
54545;SDS011;40444;45.184;9.850;2023-02-23T23:25:20;65.57;;;37.97;;
54545;SDS011;40444;45.184;9.850;2023-02-23T23:27:49;65.82;;;38.15;;
54545;SDS011;40444;45.184;9.850;2023-02-23T23:30:21;65.93;;;39.72;;
54545;SDS011;40444;45.184;9.850;2023-02-23T23:32:56;67.63;;;38.70;;
54545;SDS011;40444;45.184;9.850;2023-02-23T23:35:24;60.72;;;37.40;;
54545;SDS011;40444;45.184;9.850;2023-02-23T23:37:52;63.92;;;37.88;;
54545;SDS011;40444;45.184;9.850;2023-02-23T23:40:20;66.03;;;38.40;;
54545;SDS011;40444;45.184;9.850;2023-02-23T23:42:51;68.25;;;38.97;;
54545;SDS011;40444;45.184;9.850;2023-02-23T23:45:22;72.38;;;41.03;;
54545;SDS011;40444;45.184;9.850;2023-02-23T23:47:54;71.55;;;39.67;;
54545;SDS011;40444;45.184;9.850;2023-02-23T23:50:22;77.72;;;43.90;;
54545;SDS011;40444;45.184;9.850;2023-02-23T23:52:54;70.88;;;40.83;;
54545;SDS011;40444;45.184;9.850;2023-02-23T23:55:23;79.65;;;43.63;;
54545;SDS011;40444;45.184;9.850;2023-02-23T23:57:57;80.32;;;44.50;;
